sensor_id;sensor_type;location;lat;lon;timestamp;pressure;altitude;pressure_sealevel;temperature;humidity
37856;BME280;23694;43.274;26.924;2023-12-28T00:01:27;100039.59;;;7.85;75.69
37856;BME280;23694;43.274;26.924;2023-12-28T00:03:53;100032.06;;;8.00;74.38
37856;BME280;23694;43.274;26.924;2023-12-28T00:06:19;100028.25;;;7.86;74.87
37856;BME280;23694;43.274;26.924;2023-12-28T00:08:45;100030.88;;;7.86;74.73
37856;BME280;23694;43.274;26.924;2023-12-28T00:11:12;100027.59;;;7.81;75.84
37856;BME280;23694;43.274;26.924;2023-12-28T00:13:38;100044.59;;;7.91;75.50
37856;BME280;23694;43.274;26.924;2023-12-28T00:16:04;100050.66;;;7.92;75.01
37856;BME280;23694;43.274;26.924;2023-12-28T00:18:30;100057.69;;;7.90;74.47
37856;BME280;23694;43.274;26.924;2023-12-28T00:20:57;100051.97;;;7.80;74.67
37856;BME280;23694;43.274;26.924;2023-12-28T00:23:23;100059.16;;;7.74;75.32
37856;BME280;23694;43.274;26.924;2023-12-28T00:25:49;100050.44;;;7.75;74.78
37856;BME280;23694;43.274;26.924;2023-12-28T00:28:15;100061.66;;;7.77;74.95
37856;BME280;23694;43.274;26.924;2023-12-28T00:30:41;100053.78;;;7.78;75.61
37856;BME280;23694;43.274;26.924;2023-12-28T00:33:07;100058.25;;;7.75;75.32
37856;BME280;23694;43.274;26.924;2023-12-28T00:35:33;100045.16;;;7.76;75.17
37856;BME280;23694;43.274;26.924;2023-12-28T00:37:59;100049.81;;;7.68;75.36
37856;BME280;23694;43.274;26.924;2023-12-28T00:40:25;100058.69;;;7.64;74.98
37856;BME280;23694;43.274;26.924;2023-12-28T00:42:51;100063.84;;;7.66;75.08
37856;BME280;23694;43.274;26.924;2023-12-28T00:45:17;100050.47;;;7.51;75.27
37856;BME280;23694;43.274;26.924;2023-12-28T00:47:43;100059.16;;;7.52;76.45
37856;BME280;23694;43.274;26.924;2023-12-28T00:50:09;100053.09;;;7.51;76.10
37856;BME280;23694;43.274;26.924;2023-12-28T00:52:41;100057.91;;;7.39;76.37
37856;BME280;23694;43.274;26.924;2023-12-28T00:55:07;100056.34;;;7.35;77.01
37856;BME280;23694;43.274;26.924;2023-12-28T00:57:33;100061.44;;;7.38;77.27
37856;BME280;23694;43.274;26.924;2023-12-28T01:00:00;100058.09;;;7.34;77.65
37856;BME280;23694;43.274;26.924;2023-12-28T01:02:26;100058.81;;;7.38;77.71
37856;BME280;23694;43.274;26.924;2023-12-28T01:04:52;100055.38;;;7.37;78.09
37856;BME280;23694;43.274;26.924;2023-12-28T01:07:18;100055.38;;;7.37;77.77
37856;BME280;23694;43.274;26.924;2023-12-28T01:09:45;100061.44;;;7.38;77.95
37856;BME280;23694;43.274;26.924;2023-12-28T01:12:11;100056.16;;;7.39;77.97
37856;BME280;23694;43.274;26.924;2023-12-28T01:14:37;100057.84;;;7.40;77.85
37856;BME280;23694;43.274;26.924;2023-12-28T01:17:03;100050.28;;;7.34;77.90
37856;BME280;23694;43.274;26.924;2023-12-28T01:19:29;100048.28;;;7.41;77.89
37856;BME280;23694;43.274;26.924;2023-12-28T01:21:55;100040.81;;;7.31;77.11
37856;BME280;23694;43.274;26.924;2023-12-28T01:24:21;100039.97;;;7.31;77.46
37856;BME280;23694;43.274;26.924;2023-12-28T01:26:47;100039.47;;;7.21;78.60
37856;BME280;23694;43.274;26.924;2023-12-28T01:29:13;100036.63;;;7.27;78.66
37856;BME280;23694;43.274;26.924;2023-12-28T01:31:39;100039.06;;;7.32;78.13
37856;BME280;23694;43.274;26.924;2023-12-28T01:34:06;100044.31;;;7.30;78.26
37856;BME280;23694;43.274;26.924;2023-12-28T01:36:32;100045.22;;;7.29;77.82
37856;BME280;23694;43.274;26.924;2023-12-28T01:38:58;100056.47;;;7.07;78.32
37856;BME280;23694;43.274;26.924;2023-12-28T01:41:24;100050.00;;;7.18;78.81
37856;BME280;23694;43.274;26.924;2023-12-28T01:43:50;100050.09;;;7.15;78.46
37856;BME280;23694;43.274;26.924;2023-12-28T01:46:20;100055.19;;;7.18;79.17
37856;BME280;23694;43.274;26.924;2023-12-28T01:48:49;100055.22;;;6.93;79.92
37856;BME280;23694;43.274;26.924;2023-12-28T01:51:15;100056.34;;;7.10;79.15
37856;BME280;23694;43.274;26.924;2023-12-28T01:53:43;100051.59;;;6.97;79.45
37856;BME280;23694;43.274;26.924;2023-12-28T01:56:11;100054.69;;;6.84;79.58
37856;BME280;23694;43.274;26.924;2023-12-28T01:58:38;100046.47;;;6.71;80.34
37856;BME280;23694;43.274;26.924;2023-12-28T02:01:06;100047.22;;;6.48;81.63
37856;BME280;23694;43.274;26.924;2023-12-28T02:03:33;100059.50;;;6.45;82.90
37856;BME280;23694;43.274;26.924;2023-12-28T02:06:00;100053.66;;;6.38;83.64
37856;BME280;23694;43.274;26.924;2023-12-28T02:08:26;100054.72;;;6.32;84.74
37856;BME280;23694;43.274;26.924;2023-12-28T02:10:52;100051.47;;;6.26;85.10
37856;BME280;23694;43.274;26.924;2023-12-28T02:13:21;100046.22;;;6.27;85.81
37856;BME280;23694;43.274;26.924;2023-12-28T02:15:52;100053.59;;;6.40;85.40
37856;BME280;23694;43.274;26.924;2023-12-28T02:18:23;100053.91;;;6.57;84.72
37856;BME280;23694;43.274;26.924;2023-12-28T02:20:51;100054.66;;;6.60;84.16
37856;BME280;23694;43.274;26.924;2023-12-28T02:23:18;100059.75;;;6.63;83.85
37856;BME280;23694;43.274;26.924;2023-12-28T02:25:44;100054.44;;;6.66;83.22
37856;BME280;23694;43.274;26.924;2023-12-28T02:28:10;100051.16;;;6.61;83.39
37856;BME280;23694;43.274;26.924;2023-12-28T02:30:37;100061.41;;;6.66;82.94
37856;BME280;23694;43.274;26.924;2023-12-28T02:35:55;100054.59;;;6.62;83.25
37856;BME280;23694;43.274;26.924;2023-12-28T02:38:24;100061.50;;;6.63;83.09
37856;BME280;23694;43.274;26.924;2023-12-28T02:40:51;100057.59;;;6.50;83.01
37856;BME280;23694;43.274;26.924;2023-12-28T02:43:18;100061.06;;;6.50;83.87
37856;BME280;23694;43.274;26.924;2023-12-28T02:45:44;100072.41;;;6.48;83.59
37856;BME280;23694;43.274;26.924;2023-12-28T02:48:10;100069.88;;;6.46;83.77
37856;BME280;23694;43.274;26.924;2023-12-28T02:50:36;100065.66;;;6.42;83.69
37856;BME280;23694;43.274;26.924;2023-12-28T02:53:03;100066.31;;;6.49;83.39
37856;BME280;23694;43.274;26.924;2023-12-28T02:55:29;100060.19;;;6.50;83.29
37856;BME280;23694;43.274;26.924;2023-12-28T02:57:57;100062.06;;;6.46;83.54
37856;BME280;23694;43.274;26.924;2023-12-28T03:00:26;100066.06;;;6.56;83.26
37856;BME280;23694;43.274;26.924;2023-12-28T03:02:53;100068.00;;;6.50;83.00
37856;BME280;23694;43.274;26.924;2023-12-28T03:05:19;100072.34;;;6.51;83.50
37856;BME280;23694;43.274;26.924;2023-12-28T03:07:48;100068.91;;;6.49;83.62
37856;BME280;23694;43.274;26.924;2023-12-28T03:10:15;100076.03;;;6.44;83.26
37856;BME280;23694;43.274;26.924;2023-12-28T03:12:42;100070.88;;;6.42;83.33
37856;BME280;23694;43.274;26.924;2023-12-28T03:15:08;100065.72;;;6.41;83.79
37856;BME280;23694;43.274;26.924;2023-12-28T03:17:34;100069.31;;;6.36;83.82
37856;BME280;23694;43.274;26.924;2023-12-28T03:20:03;100069.22;;;6.40;84.13
37856;BME280;23694;43.274;26.924;2023-12-28T03:22:29;100063.00;;;6.44;83.28
37856;BME280;23694;43.274;26.924;2023-12-28T03:24:55;100063.84;;;6.44;82.61
37856;BME280;23694;43.274;26.924;2023-12-28T03:27:21;100067.50;;;6.39;83.40
37856;BME280;23694;43.274;26.924;2023-12-28T03:29:47;100070.28;;;6.34;83.65
37856;BME280;23694;43.274;26.924;2023-12-28T03:32:14;100055.75;;;6.27;83.85
37856;BME280;23694;43.274;26.924;2023-12-28T03:34:40;100068.88;;;6.24;83.85
37856;BME280;23694;43.274;26.924;2023-12-28T03:37:06;100066.22;;;6.25;84.11
37856;BME280;23694;43.274;26.924;2023-12-28T03:39:32;100081.84;;;6.25;84.61
37856;BME280;23694;43.274;26.924;2023-12-28T03:41:59;100076.78;;;6.21;84.78
37856;BME280;23694;43.274;26.924;2023-12-28T03:44:25;100080.13;;;5.98;85.44
37856;BME280;23694;43.274;26.924;2023-12-28T03:46:51;100080.06;;;5.99;86.27
37856;BME280;23694;43.274;26.924;2023-12-28T03:49:20;100079.19;;;6.00;85.81
37856;BME280;23694;43.274;26.924;2023-12-28T03:51:49;100074.69;;;6.06;86.09
37856;BME280;23694;43.274;26.924;2023-12-28T03:54:16;100065.31;;;6.00;86.81
37856;BME280;23694;43.274;26.924;2023-12-28T03:56:43;100077.66;;;5.93;87.24
37856;BME280;23694;43.274;26.924;2023-12-28T03:59:10;100069.00;;;5.93;88.57
37856;BME280;23694;43.274;26.924;2023-12-28T04:01:36;100059.06;;;6.06;90.81
37856;BME280;23694;43.274;26.924;2023-12-28T04:04:02;100064.72;;;6.18;90.14
37856;BME280;23694;43.274;26.924;2023-12-28T04:06:28;100054.63;;;6.09;88.59
37856;BME280;23694;43.274;26.924;2023-12-28T04:08:54;100054.22;;;5.95;88.32
37856;BME280;23694;43.274;26.924;2023-12-28T04:11:20;100063.34;;;5.79;89.46
37856;BME280;23694;43.274;26.924;2023-12-28T04:13:46;100062.22;;;5.87;88.51
37856;BME280;23694;43.274;26.924;2023-12-28T04:16:13;100064.03;;;5.85;89.04
37856;BME280;23694;43.274;26.924;2023-12-28T04:18:41;100062.97;;;5.92;89.53
37856;BME280;23694;43.274;26.924;2023-12-28T04:21:11;100059.22;;;6.01;89.49
37856;BME280;23694;43.274;26.924;2023-12-28T04:23:39;100053.13;;;6.02;88.86
37856;BME280;23694;43.274;26.924;2023-12-28T04:26:06;100054.16;;;5.96;89.88
37856;BME280;23694;43.274;26.924;2023-12-28T04:28:32;100056.09;;;5.90;89.77
37856;BME280;23694;43.274;26.924;2023-12-28T04:31:06;100049.56;;;6.04;91.58
37856;BME280;23694;43.274;26.924;2023-12-28T04:33:32;100047.78;;;6.07;89.42
37856;BME280;23694;43.274;26.924;2023-12-28T04:36:02;100036.81;;;5.97;90.11
37856;BME280;23694;43.274;26.924;2023-12-28T04:38:30;100039.56;;;5.92;90.15
37856;BME280;23694;43.274;26.924;2023-12-28T04:40:58;100056.19;;;5.87;88.83
37856;BME280;23694;43.274;26.924;2023-12-28T04:43:24;100055.63;;;5.76;89.15
37856;BME280;23694;43.274;26.924;2023-12-28T04:45:51;100054.16;;;5.67;89.54
37856;BME280;23694;43.274;26.924;2023-12-28T04:48:18;100047.16;;;5.69;90.18
37856;BME280;23694;43.274;26.924;2023-12-28T04:50:49;100047.25;;;5.66;90.80
37856;BME280;23694;43.274;26.924;2023-12-28T04:53:15;100048.41;;;5.57;91.42
37856;BME280;23694;43.274;26.924;2023-12-28T04:55:41;100050.44;;;5.48;91.46
37856;BME280;23694;43.274;26.924;2023-12-28T04:58:07;100045.03;;;5.54;92.08
37856;BME280;23694;43.274;26.924;2023-12-28T05:00:33;100049.16;;;5.61;91.44
37856;BME280;23694;43.274;26.924;2023-12-28T05:03:00;100039.84;;;5.54;92.29
37856;BME280;23694;43.274;26.924;2023-12-28T05:05:26;100042.16;;;5.63;91.71
37856;BME280;23694;43.274;26.924;2023-12-28T05:07:52;100038.56;;;5.67;91.35
37856;BME280;23694;43.274;26.924;2023-12-28T05:10:18;100041.06;;;5.70;96.41
37856;BME280;23694;43.274;26.924;2023-12-28T05:12:44;100044.53;;;5.70;95.14
37856;BME280;23694;43.274;26.924;2023-12-28T05:15:10;100031.84;;;5.60;94.14
37856;BME280;23694;43.274;26.924;2023-12-28T05:17:36;100033.28;;;5.70;93.05
37856;BME280;23694;43.274;26.924;2023-12-28T05:20:02;100032.91;;;5.54;93.45
37856;BME280;23694;43.274;26.924;2023-12-28T05:22:28;100043.16;;;5.59;93.11
37856;BME280;23694;43.274;26.924;2023-12-28T05:24:54;100041.34;;;5.61;92.70
37856;BME280;23694;43.274;26.924;2023-12-28T05:27:20;100035.41;;;5.57;93.52
37856;BME280;23694;43.274;26.924;2023-12-28T05:29:53;100034.66;;;5.54;93.54
37856;BME280;23694;43.274;26.924;2023-12-28T05:32:19;100040.69;;;5.54;93.41
37856;BME280;23694;43.274;26.924;2023-12-28T05:34:45;100046.88;;;5.50;93.60
37856;BME280;23694;43.274;26.924;2023-12-28T05:37:11;100041.03;;;5.44;94.98
37856;BME280;23694;43.274;26.924;2023-12-28T05:39:37;100047.06;;;5.44;94.33
37856;BME280;23694;43.274;26.924;2023-12-28T05:42:03;100046.00;;;5.51;94.17
37856;BME280;23694;43.274;26.924;2023-12-28T05:44:29;100036.53;;;5.49;94.53
37856;BME280;23694;43.274;26.924;2023-12-28T05:46:55;100043.88;;;5.64;94.64
37856;BME280;23694;43.274;26.924;2023-12-28T05:49:23;100047.06;;;5.72;93.60
37856;BME280;23694;43.274;26.924;2023-12-28T05:51:50;100046.00;;;5.22;94.48
37856;BME280;23694;43.274;26.924;2023-12-28T05:54:16;100050.03;;;5.01;97.38
37856;BME280;23694;43.274;26.924;2023-12-28T05:56:42;100046.84;;;5.22;97.08
37856;BME280;23694;43.274;26.924;2023-12-28T05:59:08;100048.34;;;5.59;96.59
37856;BME280;23694;43.274;26.924;2023-12-28T06:01:41;100053.53;;;6.67;93.14
37856;BME280;23694;43.274;26.924;2023-12-28T06:04:07;100043.34;;;8.00;84.86
37856;BME280;23694;43.274;26.924;2023-12-28T06:06:33;100042.63;;;9.20;74.58
37856;BME280;23694;43.274;26.924;2023-12-28T06:09:00;100038.19;;;10.32;65.31
37856;BME280;23694;43.274;26.924;2023-12-28T06:11:26;100035.69;;;11.15;60.49
37856;BME280;23694;43.274;26.924;2023-12-28T06:13:52;100032.19;;;12.25;55.84
37856;BME280;23694;43.274;26.924;2023-12-28T06:16:18;100030.44;;;13.28;51.10
37856;BME280;23694;43.274;26.924;2023-12-28T06:18:44;100033.00;;;14.24;47.28
37856;BME280;23694;43.274;26.924;2023-12-28T06:21:10;100030.59;;;14.61;45.21
37856;BME280;23694;43.274;26.924;2023-12-28T06:23:36;100036.91;;;15.35;43.46
37856;BME280;23694;43.274;26.924;2023-12-28T06:26:05;100044.19;;;16.41;41.10
37856;BME280;23694;43.274;26.924;2023-12-28T06:28:32;100041.59;;;17.32;38.62
37856;BME280;23694;43.274;26.924;2023-12-28T06:30:59;100031.44;;;17.93;37.08
37856;BME280;23694;43.274;26.924;2023-12-28T06:33:30;100039.50;;;18.55;35.03
37856;BME280;23694;43.274;26.924;2023-12-28T06:35:56;100037.69;;;19.18;34.33
37856;BME280;23694;43.274;26.924;2023-12-28T06:38:25;100046.09;;;20.04;32.47
37856;BME280;23694;43.274;26.924;2023-12-28T06:40:51;100046.97;;;20.62;31.24
37856;BME280;23694;43.274;26.924;2023-12-28T06:43:17;100057.31;;;21.41;29.81
37856;BME280;23694;43.274;26.924;2023-12-28T06:45:43;100049.63;;;20.72;30.30
37856;BME280;23694;43.274;26.924;2023-12-28T06:48:10;100049.13;;;21.15;29.68
37856;BME280;23694;43.274;26.924;2023-12-28T06:50:36;100047.34;;;21.98;28.93
37856;BME280;23694;43.274;26.924;2023-12-28T06:53:02;100044.81;;;22.41;27.99
37856;BME280;23694;43.274;26.924;2023-12-28T06:55:28;100041.13;;;23.04;26.89
37856;BME280;23694;43.274;26.924;2023-12-28T06:57:54;100039.94;;;23.58;25.91
37856;BME280;23694;43.274;26.924;2023-12-28T07:00:20;100032.38;;;24.04;25.82
37856;BME280;23694;43.274;26.924;2023-12-28T07:02:47;100019.53;;;24.08;25.64
37856;BME280;23694;43.274;26.924;2023-12-28T07:05:13;100016.44;;;23.78;25.68
37856;BME280;23694;43.274;26.924;2023-12-28T07:07:39;100015.50;;;23.19;26.00
37856;BME280;23694;43.274;26.924;2023-12-28T07:10:06;100007.66;;;22.48;27.01
37856;BME280;23694;43.274;26.924;2023-12-28T07:12:32;100010.06;;;23.37;26.44
37856;BME280;23694;43.274;26.924;2023-12-28T07:14:58;100014.00;;;24.25;24.90
37856;BME280;23694;43.274;26.924;2023-12-28T07:17:24;100014.00;;;24.90;24.71
37856;BME280;23694;43.274;26.924;2023-12-28T07:19:50;100014.91;;;25.38;23.43
37856;BME280;23694;43.274;26.924;2023-12-28T07:22:16;100016.41;;;23.36;25.72
37856;BME280;23694;43.274;26.924;2023-12-28T07:24:43;100010.59;;;23.06;26.57
37856;BME280;23694;43.274;26.924;2023-12-28T07:27:09;100028.53;;;23.22;26.34
37856;BME280;23694;43.274;26.924;2023-12-28T07:29:35;100019.41;;;24.33;25.31
37856;BME280;23694;43.274;26.924;2023-12-28T07:32:01;100024.72;;;22.55;26.63
37856;BME280;23694;43.274;26.924;2023-12-28T07:34:27;100028.41;;;22.36;27.21
37856;BME280;23694;43.274;26.924;2023-12-28T07:36:53;100033.75;;;20.99;29.27
37856;BME280;23694;43.274;26.924;2023-12-28T07:39:20;100034.28;;;22.22;27.48
37856;BME280;23694;43.274;26.924;2023-12-28T07:41:46;100046.09;;;22.37;26.91
37856;BME280;23694;43.274;26.924;2023-12-28T07:44:12;100036.41;;;20.99;29.13
37856;BME280;23694;43.274;26.924;2023-12-28T07:46:38;100031.03;;;21.56;29.14
37856;BME280;23694;43.274;26.924;2023-12-28T07:49:04;100031.53;;;22.50;27.51
37856;BME280;23694;43.274;26.924;2023-12-28T07:51:30;100027.06;;;20.85;29.05
37856;BME280;23694;43.274;26.924;2023-12-28T07:53:56;100029.72;;;21.87;28.07
37856;BME280;23694;43.274;26.924;2023-12-28T07:56:22;100022.25;;;22.36;27.82
37856;BME280;23694;43.274;26.924;2023-12-28T07:58:48;100025.25;;;23.02;26.59
37856;BME280;23694;43.274;26.924;2023-12-28T08:01:14;100022.34;;;23.22;26.32
37856;BME280;23694;43.274;26.924;2023-12-28T08:03:40;100015.25;;;23.38;26.15
37856;BME280;23694;43.274;26.924;2023-12-28T08:06:06;100018.75;;;23.73;25.73
37856;BME280;23694;43.274;26.924;2023-12-28T08:08:32;100030.09;;;23.33;25.73
37856;BME280;23694;43.274;26.924;2023-12-28T08:10:58;100039.69;;;19.26;31.77
37856;BME280;23694;43.274;26.924;2023-12-28T08:13:24;100035.25;;;19.06;32.26
37856;BME280;23694;43.274;26.924;2023-12-28T08:15:50;100022.72;;;20.84;29.63
37856;BME280;23694;43.274;26.924;2023-12-28T08:18:16;100014.88;;;20.83;29.59
37856;BME280;23694;43.274;26.924;2023-12-28T08:20:42;100014.72;;;21.86;28.52
37856;BME280;23694;43.274;26.924;2023-12-28T08:23:08;100023.66;;;22.84;27.18
37856;BME280;23694;43.274;26.924;2023-12-28T08:25:34;100025.50;;;22.48;27.24
37856;BME280;23694;43.274;26.924;2023-12-28T08:28:00;100029.88;;;22.74;27.17
37856;BME280;23694;43.274;26.924;2023-12-28T08:30:26;100020.97;;;22.66;27.20
37856;BME280;23694;43.274;26.924;2023-12-28T08:32:53;100008.84;;;21.82;28.52
37856;BME280;23694;43.274;26.924;2023-12-28T08:35:19;100005.78;;;22.66;27.69
37856;BME280;23694;43.274;26.924;2023-12-28T08:37:45;100012.38;;;23.66;26.26
37856;BME280;23694;43.274;26.924;2023-12-28T08:40:11;100019.59;;;19.63;31.71
37856;BME280;23694;43.274;26.924;2023-12-28T08:42:37;100017.84;;;17.86;35.06
37856;BME280;23694;43.274;26.924;2023-12-28T08:45:04;100020.47;;;16.04;39.33
37856;BME280;23694;43.274;26.924;2023-12-28T08:47:30;100021.34;;;18.72;34.36
37856;BME280;23694;43.274;26.924;2023-12-28T08:49:56;100011.72;;;18.91;34.17
37856;BME280;23694;43.274;26.924;2023-12-28T08:52:22;100004.31;;;18.53;35.42
37856;BME280;23694;43.274;26.924;2023-12-28T08:54:48;99998.44;;;18.91;35.01
37856;BME280;23694;43.274;26.924;2023-12-28T08:57:14;99991.94;;;20.05;32.69
37856;BME280;23694;43.274;26.924;2023-12-28T08:59:40;99991.41;;;22.41;28.63
37856;BME280;23694;43.274;26.924;2023-12-28T09:02:06;99995.16;;;22.74;28.25
37856;BME280;23694;43.274;26.924;2023-12-28T09:04:33;99983.09;;;19.85;32.95
37856;BME280;23694;43.274;26.924;2023-12-28T09:06:59;99981.88;;;20.18;31.25
37856;BME280;23694;43.274;26.924;2023-12-28T09:09:25;99983.34;;;16.87;37.62
37856;BME280;23694;43.274;26.924;2023-12-28T09:11:51;99983.38;;;17.09;37.36
37856;BME280;23694;43.274;26.924;2023-12-28T09:14:17;99973.97;;;19.18;34.78
37856;BME280;23694;43.274;26.924;2023-12-28T09:16:46;99955.06;;;22.05;29.65
37856;BME280;23694;43.274;26.924;2023-12-28T09:19:12;99958.19;;;19.67;32.65
37856;BME280;23694;43.274;26.924;2023-12-28T09:21:38;99947.25;;;21.03;31.14
37856;BME280;23694;43.274;26.924;2023-12-28T09:24:04;99949.78;;;19.90;33.05
37856;BME280;23694;43.274;26.924;2023-12-28T09:26:31;99953.13;;;18.42;34.63
37856;BME280;23694;43.274;26.924;2023-12-28T09:28:58;99944.03;;;18.02;35.05
37856;BME280;23694;43.274;26.924;2023-12-28T09:31:24;99951.47;;;14.74;41.55
37856;BME280;23694;43.274;26.924;2023-12-28T09:33:50;99927.06;;;16.74;37.71
37856;BME280;23694;43.274;26.924;2023-12-28T09:36:16;99918.97;;;18.69;33.97
37856;BME280;23694;43.274;26.924;2023-12-28T09:38:42;99910.63;;;19.54;32.09
37856;BME280;23694;43.274;26.924;2023-12-28T09:41:12;99915.31;;;19.50;32.07
37856;BME280;23694;43.274;26.924;2023-12-28T09:43:54;99907.22;;;21.13;29.75
37856;BME280;23694;43.274;26.924;2023-12-28T09:46:24;99903.66;;;21.22;29.25
37856;BME280;23694;43.274;26.924;2023-12-28T09:48:52;99909.63;;;19.55;31.17
37856;BME280;23694;43.274;26.924;2023-12-28T09:51:19;99904.69;;;18.40;33.96
37856;BME280;23694;43.274;26.924;2023-12-28T09:53:45;99902.91;;;19.89;31.20
37856;BME280;23694;43.274;26.924;2023-12-28T09:56:13;99896.56;;;20.48;30.24
37856;BME280;23694;43.274;26.924;2023-12-28T09:58:40;99901.81;;;18.52;33.56
37856;BME280;23694;43.274;26.924;2023-12-28T10:01:09;99897.06;;;19.07;32.92
37856;BME280;23694;43.274;26.924;2023-12-28T10:03:35;99903.97;;;16.76;37.05
37856;BME280;23694;43.274;26.924;2023-12-28T10:06:01;99898.59;;;17.86;35.12
37856;BME280;23694;43.274;26.924;2023-12-28T10:08:27;99894.53;;;18.03;34.18
37856;BME280;23694;43.274;26.924;2023-12-28T10:10:53;99890.06;;;17.83;35.38
37856;BME280;23694;43.274;26.924;2023-12-28T10:13:20;99890.25;;;18.84;33.04
37856;BME280;23694;43.274;26.924;2023-12-28T10:15:47;99881.13;;;19.17;32.33
37856;BME280;23694;43.274;26.924;2023-12-28T10:18:14;99898.13;;;17.38;35.19
37856;BME280;23694;43.274;26.924;2023-12-28T10:20:40;99889.91;;;16.75;36.90
37856;BME280;23694;43.274;26.924;2023-12-28T10:23:06;99878.94;;;18.10;34.79
37856;BME280;23694;43.274;26.924;2023-12-28T10:25:33;99871.03;;;18.19;34.13
37856;BME280;23694;43.274;26.924;2023-12-28T10:28:04;99869.69;;;17.08;36.35
37856;BME280;23694;43.274;26.924;2023-12-28T10:30:31;99872.72;;;17.35;36.17
37856;BME280;23694;43.274;26.924;2023-12-28T10:32:58;99866.97;;;17.73;35.33
37856;BME280;23694;43.274;26.924;2023-12-28T10:35:24;99860.75;;;17.20;36.17
37856;BME280;23694;43.274;26.924;2023-12-28T10:37:52;99855.81;;;17.59;35.71
37856;BME280;23694;43.274;26.924;2023-12-28T10:40:20;99854.63;;;18.04;35.10
37856;BME280;23694;43.274;26.924;2023-12-28T10:42:59;99850.31;;;17.83;35.75
37856;BME280;23694;43.274;26.924;2023-12-28T10:45:31;99849.59;;;18.22;34.73
37856;BME280;23694;43.274;26.924;2023-12-28T10:48:11;99845.09;;;17.60;36.16
37856;BME280;23694;43.274;26.924;2023-12-28T10:50:48;99843.38;;;17.70;35.58
37856;BME280;23694;43.274;26.924;2023-12-28T10:53:24;99836.44;;;17.58;35.75
37856;BME280;23694;43.274;26.924;2023-12-28T10:56:04;99829.84;;;15.39;40.10
37856;BME280;23694;43.274;26.924;2023-12-28T10:58:50;99821.84;;;15.75;39.64
37856;BME280;23694;43.274;26.924;2023-12-28T11:01:26;99827.41;;;15.95;39.31
37856;BME280;23694;43.274;26.924;2023-12-28T11:04:07;99813.75;;;16.90;37.66
37856;BME280;23694;43.274;26.924;2023-12-28T11:06:35;99820.31;;;17.50;36.72
37856;BME280;23694;43.274;26.924;2023-12-28T11:09:02;99809.94;;;16.72;38.13
37856;BME280;23694;43.274;26.924;2023-12-28T11:11:29;99804.06;;;16.35;38.06
37856;BME280;23694;43.274;26.924;2023-12-28T11:13:56;99806.81;;;17.53;36.72
37856;BME280;23694;43.274;26.924;2023-12-28T11:16:27;99800.38;;;18.09;35.15
37856;BME280;23694;43.274;26.924;2023-12-28T11:18:55;99797.16;;;17.31;36.90
37856;BME280;23694;43.274;26.924;2023-12-28T11:21:22;99791.63;;;17.55;36.45
37856;BME280;23694;43.274;26.924;2023-12-28T11:23:49;99793.75;;;17.72;36.31
37856;BME280;23694;43.274;26.924;2023-12-28T11:26:19;99780.53;;;18.64;34.92
37856;BME280;23694;43.274;26.924;2023-12-28T11:28:46;99774.97;;;18.77;34.41
37856;BME280;23694;43.274;26.924;2023-12-28T11:31:15;99776.09;;;18.74;34.32
37856;BME280;23694;43.274;26.924;2023-12-28T11:33:48;99782.94;;;17.64;35.18
37856;BME280;23694;43.274;26.924;2023-12-28T11:36:33;99776.66;;;18.07;34.91
37856;BME280;23694;43.274;26.924;2023-12-28T11:39:06;99768.09;;;19.53;32.83
37856;BME280;23694;43.274;26.924;2023-12-28T11:41:35;99767.31;;;18.83;33.65
37856;BME280;23694;43.274;26.924;2023-12-28T11:44:03;99761.78;;;19.73;32.21
37856;BME280;23694;43.274;26.924;2023-12-28T11:46:32;99760.34;;;19.50;32.24
37856;BME280;23694;43.274;26.924;2023-12-28T11:49:08;99758.66;;;18.41;33.63
37856;BME280;23694;43.274;26.924;2023-12-28T11:51:36;99745.34;;;18.62;33.73
37856;BME280;23694;43.274;26.924;2023-12-28T11:54:03;99749.97;;;17.99;34.50
37856;BME280;23694;43.274;26.924;2023-12-28T11:56:30;99736.56;;;19.87;31.64
37856;BME280;23694;43.274;26.924;2023-12-28T11:58:57;99732.06;;;19.87;31.01
37856;BME280;23694;43.274;26.924;2023-12-28T12:01:24;99731.56;;;18.07;34.37
37856;BME280;23694;43.274;26.924;2023-12-28T12:03:51;99719.38;;;19.81;31.50
37856;BME280;23694;43.274;26.924;2023-12-28T12:06:19;99726.16;;;20.40;30.33
37856;BME280;23694;43.274;26.924;2023-12-28T12:08:48;99730.44;;;19.67;31.16
37856;BME280;23694;43.274;26.924;2023-12-28T12:11:17;99720.00;;;18.08;33.86
37856;BME280;23694;43.274;26.924;2023-12-28T12:13:44;99733.44;;;17.86;34.54
37856;BME280;23694;43.274;26.924;2023-12-28T12:16:10;99715.38;;;19.19;32.48
37856;BME280;23694;43.274;26.924;2023-12-28T12:18:36;99711.44;;;18.25;33.98
37856;BME280;23694;43.274;26.924;2023-12-28T12:21:02;99702.25;;;18.98;32.77
37856;BME280;23694;43.274;26.924;2023-12-28T12:23:29;99704.88;;;18.79;33.15
37856;BME280;23694;43.274;26.924;2023-12-28T12:25:55;99694.00;;;18.92;33.14
37856;BME280;23694;43.274;26.924;2023-12-28T12:28:21;99694.97;;;19.00;32.58
37856;BME280;23694;43.274;26.924;2023-12-28T12:30:56;99694.59;;;17.13;36.01
37856;BME280;23694;43.274;26.924;2023-12-28T12:33:23;99699.00;;;17.23;36.23
37856;BME280;23694;43.274;26.924;2023-12-28T12:35:49;99692.88;;;18.94;32.83
37856;BME280;23694;43.274;26.924;2023-12-28T12:38:16;99691.66;;;16.52;36.60
37856;BME280;23694;43.274;26.924;2023-12-28T12:40:42;99693.28;;;15.98;37.82
37856;BME280;23694;43.274;26.924;2023-12-28T12:43:09;99686.03;;;16.34;37.53
37856;BME280;23694;43.274;26.924;2023-12-28T12:45:36;99695.91;;;16.09;37.85
37856;BME280;23694;43.274;26.924;2023-12-28T12:48:03;99691.25;;;15.44;38.91
37856;BME280;23694;43.274;26.924;2023-12-28T12:50:32;99692.72;;;15.48;39.19